sensor_id;sensor_type;location;lat;lon;timestamp;pressure;altitude;pressure_sealevel;temperature;humidity
73651;BME280;61944;52.538;6.108;2023-04-03T00:00:51;103085.91;;;5.13;90.12
73651;BME280;61944;52.538;6.108;2023-04-03T00:03:18;103064.09;;;4.91;90.41
73651;BME280;61944;52.538;6.108;2023-04-03T00:05:44;103090.88;;;5.16;90.21
73651;BME280;61944;52.538;6.108;2023-04-03T00:08:09;103079.38;;;4.88;90.15
73651;BME280;61944;52.538;6.108;2023-04-03T00:10:36;103081.81;;;5.00;90.66
73651;BME280;61944;52.538;6.108;2023-04-03T00:13:02;103093.84;;;4.80;90.84
73651;BME280;61944;52.538;6.108;2023-04-03T00:15:27;103090.97;;;4.95;90.88
73651;BME280;61944;52.538;6.108;2023-04-03T00:17:53;103102.09;;;4.95;91.12
73651;BME280;61944;52.538;6.108;2023-04-03T00:20:18;103097.63;;;4.99;90.22
73651;BME280;61944;52.538;6.108;2023-04-03T00:22:44;103093.56;;;4.81;90.54
73651;BME280;61944;52.538;6.108;2023-04-03T00:25:09;103096.09;;;4.73;91.29
73651;BME280;61944;52.538;6.108;2023-04-03T00:27:37;103098.78;;;4.88;90.57
73651;BME280;61944;52.538;6.108;2023-04-03T00:30:03;103096.56;;;4.90;89.58
73651;BME280;61944;52.538;6.108;2023-04-03T00:32:29;103090.50;;;4.83;91.43
73651;BME280;61944;52.538;6.108;2023-04-03T00:34:54;103095.22;;;4.82;90.71
73651;BME280;61944;52.538;6.108;2023-04-03T00:37:20;103106.03;;;4.84;90.62
73651;BME280;61944;52.538;6.108;2023-04-03T00:39:45;103097.75;;;4.79;90.16
73651;BME280;61944;52.538;6.108;2023-04-03T00:42:11;103089.50;;;4.53;91.11
73651;BME280;61944;52.538;6.108;2023-04-03T00:47:03;103110.22;;;4.81;91.92
73651;BME280;61944;52.538;6.108;2023-04-03T00:49:31;103107.28;;;4.42;91.85
73651;BME280;61944;52.538;6.108;2023-04-03T00:51:57;103107.53;;;4.51;91.34
73651;BME280;61944;52.538;6.108;2023-04-03T00:54:24;103108.09;;;4.47;92.64
73651;BME280;61944;52.538;6.108;2023-04-03T00:56:51;103096.38;;;4.71;92.70
73651;BME280;61944;52.538;6.108;2023-04-03T00:59:20;103107.22;;;4.57;91.14
73651;BME280;61944;52.538;6.108;2023-04-03T01:01:48;103103.94;;;4.50;92.58
73651;BME280;61944;52.538;6.108;2023-04-03T01:07:10;103112.25;;;4.50;93.60
73651;BME280;61944;52.538;6.108;2023-04-03T01:09:37;103108.63;;;4.55;92.71
73651;BME280;61944;52.538;6.108;2023-04-03T01:12:24;103106.19;;;4.38;91.65
73651;BME280;61944;52.538;6.108;2023-04-03T01:15:15;103119.41;;;4.61;92.80
73651;BME280;61944;52.538;6.108;2023-04-03T01:17:53;103125.00;;;4.56;92.37
73651;BME280;61944;52.538;6.108;2023-04-03T01:22:56;103118.31;;;4.57;92.79
73651;BME280;61944;52.538;6.108;2023-04-03T01:25:24;103104.78;;;4.45;93.57
73651;BME280;61944;52.538;6.108;2023-04-03T01:27:50;103120.31;;;4.41;92.91
73651;BME280;61944;52.538;6.108;2023-04-03T01:30:18;103115.56;;;4.57;93.15
73651;BME280;61944;52.538;6.108;2023-04-03T01:32:44;103114.47;;;4.48;93.32
73651;BME280;61944;52.538;6.108;2023-04-03T01:35:10;103128.31;;;4.53;93.09
73651;BME280;61944;52.538;6.108;2023-04-03T01:37:36;103121.16;;;4.42;93.33
73651;BME280;61944;52.538;6.108;2023-04-03T01:40:01;103119.50;;;4.25;94.50
73651;BME280;61944;52.538;6.108;2023-04-03T01:42:27;103125.63;;;4.17;94.17
73651;BME280;61944;52.538;6.108;2023-04-03T01:44:52;103129.19;;;4.38;93.93
73651;BME280;61944;52.538;6.108;2023-04-03T01:47:18;103127.84;;;4.15;93.77
73651;BME280;61944;52.538;6.108;2023-04-03T01:49:43;103127.28;;;4.18;92.78
73651;BME280;61944;52.538;6.108;2023-04-03T01:52:08;103129.25;;;4.18;94.93
73651;BME280;61944;52.538;6.108;2023-04-03T01:54:34;103128.94;;;4.35;94.63
73651;BME280;61944;52.538;6.108;2023-04-03T01:57:00;103108.44;;;4.31;94.62
73651;BME280;61944;52.538;6.108;2023-04-03T01:59:26;103119.53;;;4.20;94.58
73651;BME280;61944;52.538;6.108;2023-04-03T02:01:51;103126.19;;;4.24;94.53
73651;BME280;61944;52.538;6.108;2023-04-03T02:04:17;103130.91;;;4.24;94.04
73651;BME280;61944;52.538;6.108;2023-04-03T02:06:42;103127.59;;;3.91;93.57
73651;BME280;61944;52.538;6.108;2023-04-03T02:09:07;103128.97;;;3.99;94.30
73651;BME280;61944;52.538;6.108;2023-04-03T02:11:33;103125.09;;;4.10;94.86
73651;BME280;61944;52.538;6.108;2023-04-03T02:13:58;103128.13;;;4.08;94.16
73651;BME280;61944;52.538;6.108;2023-04-03T02:16:23;103120.38;;;4.05;92.60
73651;BME280;61944;52.538;6.108;2023-04-03T02:18:49;103119.00;;;3.77;94.47
73651;BME280;61944;52.538;6.108;2023-04-03T02:21:15;103133.69;;;3.93;96.16
73651;BME280;61944;52.538;6.108;2023-04-03T02:23:40;103136.47;;;3.78;95.99
73651;BME280;61944;52.538;6.108;2023-04-03T02:26:08;103120.66;;;3.83;95.22
73651;BME280;61944;52.538;6.108;2023-04-03T02:28:33;103140.63;;;3.91;95.76
73651;BME280;61944;52.538;6.108;2023-04-03T02:30:59;103139.50;;;3.86;96.03
73651;BME280;61944;52.538;6.108;2023-04-03T02:33:24;103147.81;;;4.02;95.44
73651;BME280;61944;52.538;6.108;2023-04-03T02:35:56;103146.16;;;3.80;95.26
73651;BME280;61944;52.538;6.108;2023-04-03T02:38:22;103152.81;;;4.00;95.05
73651;BME280;61944;52.538;6.108;2023-04-03T02:40:48;103159.19;;;4.16;94.76
73651;BME280;61944;52.538;6.108;2023-04-03T02:43:13;103165.56;;;4.01;95.58
73651;BME280;61944;52.538;6.108;2023-04-03T02:45:39;103156.13;;;4.02;94.89
73651;BME280;61944;52.538;6.108;2023-04-03T02:48:05;103158.91;;;4.07;94.74
73651;BME280;61944;52.538;6.108;2023-04-03T02:50:30;103148.63;;;4.02;94.88
73651;BME280;61944;52.538;6.108;2023-04-03T02:52:55;103149.47;;;4.08;94.78
73651;BME280;61944;52.538;6.108;2023-04-03T02:55:21;103148.09;;;4.00;95.08
73651;BME280;61944;52.538;6.108;2023-04-03T02:57:46;103169.41;;;3.90;94.96
73651;BME280;61944;52.538;6.108;2023-04-03T03:00:12;103167.75;;;3.83;96.00
73651;BME280;61944;52.538;6.108;2023-04-03T03:02:38;103169.41;;;3.79;95.91
73651;BME280;61944;52.538;6.108;2023-04-03T03:05:04;103149.19;;;3.69;95.31
73651;BME280;61944;52.538;6.108;2023-04-03T03:07:29;103174.38;;;3.77;96.96
73651;BME280;61944;52.538;6.108;2023-04-03T03:09:54;103179.41;;;3.96;95.73
73651;BME280;61944;52.538;6.108;2023-04-03T03:12:20;103167.75;;;3.78;96.35
73651;BME280;61944;52.538;6.108;2023-04-03T03:14:47;103165.00;;;3.94;95.12
73651;BME280;61944;52.538;6.108;2023-04-03T03:17:13;103167.22;;;4.02;95.05
73651;BME280;61944;52.538;6.108;2023-04-03T03:19:38;103172.22;;;4.05;95.11
73651;BME280;61944;52.538;6.108;2023-04-03T03:22:03;103175.53;;;3.97;94.97
73651;BME280;61944;52.538;6.108;2023-04-03T03:24:29;103185.50;;;3.98;95.63
73651;BME280;61944;52.538;6.108;2023-04-03T03:26:54;103181.91;;;3.97;94.97
73651;BME280;61944;52.538;6.108;2023-04-03T03:29:20;103170.81;;;3.77;94.82
73651;BME280;61944;52.538;6.108;2023-04-03T03:31:45;103179.66;;;3.79;95.85
73651;BME280;61944;52.538;6.108;2023-04-03T03:34:11;103159.47;;;3.73;95.68
73651;BME280;61944;52.538;6.108;2023-04-03T03:36:37;103167.22;;;3.86;95.22
73651;BME280;61944;52.538;6.108;2023-04-03T03:39:02;103175.53;;;3.92;94.90
73651;BME280;61944;52.538;6.108;2023-04-03T03:41:28;103184.41;;;3.89;95.33
73651;BME280;61944;52.538;6.108;2023-04-03T03:43:53;103169.16;;;3.86;95.02
73651;BME280;61944;52.538;6.108;2023-04-03T03:46:19;103162.78;;;3.65;95.68
73651;BME280;61944;52.538;6.108;2023-04-03T03:48:44;103171.63;;;3.72;95.14
73651;BME280;61944;52.538;6.108;2023-04-03T03:51:09;103180.50;;;3.69;95.59
73651;BME280;61944;52.538;6.108;2023-04-03T03:53:35;103183.84;;;3.71;96.15
73651;BME280;61944;52.538;6.108;2023-04-03T03:56:00;103187.41;;;3.66;95.73
73651;BME280;61944;52.538;6.108;2023-04-03T03:58:26;103197.94;;;3.75;95.12
73651;BME280;61944;52.538;6.108;2023-04-03T04:00:51;103194.88;;;3.66;94.72
73651;BME280;61944;52.538;6.108;2023-04-03T04:03:17;103194.31;;;3.64;94.80
73651;BME280;61944;52.538;6.108;2023-04-03T04:05:43;103201.25;;;3.61;94.62
73651;BME280;61944;52.538;6.108;2023-04-03T04:08:08;103180.72;;;3.47;94.59
73651;BME280;61944;52.538;6.108;2023-04-03T04:10:34;103192.06;;;3.40;96.45
73651;BME280;61944;52.538;6.108;2023-04-03T04:13:00;103197.59;;;3.45;95.82
73651;BME280;61944;52.538;6.108;2023-04-03T04:15:26;103194.31;;;3.49;94.86
73651;BME280;61944;52.538;6.108;2023-04-03T04:17:52;103183.75;;;3.40;94.81
73651;BME280;61944;52.538;6.108;2023-04-03T04:20:18;103198.16;;;3.47;95.31
73651;BME280;61944;52.538;6.108;2023-04-03T04:22:43;103205.94;;;3.51;94.80
73651;BME280;61944;52.538;6.108;2023-04-03T04:25:09;103211.44;;;3.45;94.46
73651;BME280;61944;52.538;6.108;2023-04-03T04:27:35;103187.84;;;3.22;95.05
73651;BME280;61944;52.538;6.108;2023-04-03T04:30:00;103218.63;;;3.41;95.60
73651;BME280;61944;52.538;6.108;2023-04-03T04:32:26;103213.66;;;3.38;94.56
73651;BME280;61944;52.538;6.108;2023-04-03T04:34:51;103208.63;;;3.30;95.15
73651;BME280;61944;52.538;6.108;2023-04-03T04:37:17;103180.34;;;3.18;95.50
73651;BME280;61944;52.538;6.108;2023-04-03T04:39:42;103201.41;;;3.24;94.88
73651;BME280;61944;52.538;6.108;2023-04-03T04:42:07;103212.47;;;3.24;94.92
73651;BME280;61944;52.538;6.108;2023-04-03T04:44:38;103210.88;;;3.33;94.57
73651;BME280;61944;52.538;6.108;2023-04-03T04:47:03;103199.47;;;3.19;95.45
73651;BME280;61944;52.538;6.108;2023-04-03T04:49:29;103215.75;;;3.16;95.15
73651;BME280;61944;52.538;6.108;2023-04-03T04:51:54;103215.25;;;3.19;94.96
73651;BME280;61944;52.538;6.108;2023-04-03T04:54:20;103229.03;;;3.14;94.86
73651;BME280;61944;52.538;6.108;2023-04-03T04:56:45;103219.38;;;3.16;95.53
73651;BME280;61944;52.538;6.108;2023-04-03T04:59:10;103226.00;;;3.15;95.26
73651;BME280;61944;52.538;6.108;2023-04-03T05:01:36;103233.94;;;3.01;95.33
73651;BME280;61944;52.538;6.108;2023-04-03T05:04:01;103236.78;;;3.12;95.88
73651;BME280;61944;52.538;6.108;2023-04-03T05:06:27;103225.66;;;3.01;94.95
73651;BME280;61944;52.538;6.108;2023-04-03T05:08:52;103235.88;;;2.96;95.28
73651;BME280;61944;52.538;6.108;2023-04-03T05:11:17;103228.09;;;2.88;96.22
73651;BME280;61944;52.538;6.108;2023-04-03T05:13:43;103213.69;;;2.85;95.74
73651;BME280;61944;52.538;6.108;2023-04-03T05:16:08;103213.44;;;2.92;95.61
73651;BME280;61944;52.538;6.108;2023-04-03T05:18:34;103216.78;;;2.94;95.64
73651;BME280;61944;52.538;6.108;2023-04-03T05:20:59;103225.63;;;2.91;96.24
73651;BME280;61944;52.538;6.108;2023-04-03T05:23:24;103226.38;;;2.81;96.29
73651;BME280;61944;52.538;6.108;2023-04-03T05:25:50;103208.66;;;2.72;96.14
73651;BME280;61944;52.538;6.108;2023-04-03T05:28:15;103207.00;;;2.76;95.53
73651;BME280;61944;52.538;6.108;2023-04-03T05:30:41;103231.16;;;2.96;95.91
73651;BME280;61944;52.538;6.108;2023-04-03T05:33:06;103225.56;;;2.86;95.76
73651;BME280;61944;52.538;6.108;2023-04-03T05:35:32;103229.72;;;2.83;95.69
73651;BME280;61944;52.538;6.108;2023-04-03T05:37:57;103220.31;;;2.84;95.91
73651;BME280;61944;52.538;6.108;2023-04-03T05:40:22;103251.19;;;2.66;97.49
73651;BME280;61944;52.538;6.108;2023-04-03T05:42:48;103251.09;;;2.93;97.06
73651;BME280;61944;52.538;6.108;2023-04-03T05:45:15;103251.53;;;2.75;97.68
73651;BME280;61944;52.538;6.108;2023-04-03T05:47:41;103236.19;;;2.19;99.72
73651;BME280;61944;52.538;6.108;2023-04-03T05:50:06;103251.13;;;2.23;100.00
73651;BME280;61944;52.538;6.108;2023-04-03T05:52:35;103261.06;;;2.57;99.31
73651;BME280;61944;52.538;6.108;2023-04-03T05:55:02;103264.25;;;2.38;100.00
73651;BME280;61944;52.538;6.108;2023-04-03T05:57:27;103239.38;;;2.38;99.84
73651;BME280;61944;52.538;6.108;2023-04-03T05:59:53;103241.03;;;2.07;100.00
73651;BME280;61944;52.538;6.108;2023-04-03T06:02:21;103241.75;;;2.30;100.00
73651;BME280;61944;52.538;6.108;2023-04-03T06:04:47;103256.47;;;2.35;100.00
73651;BME280;61944;52.538;6.108;2023-04-03T06:07:15;103267.38;;;2.52;100.00
73651;BME280;61944;52.538;6.108;2023-04-03T06:09:41;103263.66;;;2.74;100.00
73651;BME280;61944;52.538;6.108;2023-04-03T06:12:08;103264.53;;;2.79;99.43
73651;BME280;61944;52.538;6.108;2023-04-03T06:14:33;103250.88;;;2.62;98.61
73651;BME280;61944;52.538;6.108;2023-04-03T06:16:59;103262.88;;;2.78;99.35
73651;BME280;61944;52.538;6.108;2023-04-03T06:19:25;103264.09;;;2.55;100.00
73651;BME280;61944;52.538;6.108;2023-04-03T06:21:51;103270.13;;;2.47;99.90
73651;BME280;61944;52.538;6.108;2023-04-03T06:24:17;103261.53;;;2.11;100.00
73651;BME280;61944;52.538;6.108;2023-04-03T06:26:43;103278.59;;;2.73;100.00
73651;BME280;61944;52.538;6.108;2023-04-03T06:29:09;103265.44;;;2.15;100.00
73651;BME280;61944;52.538;6.108;2023-04-03T06:31:35;103268.41;;;1.81;100.00
73651;BME280;61944;52.538;6.108;2023-04-03T06:34:02;103276.50;;;2.20;100.00
73651;BME280;61944;52.538;6.108;2023-04-03T06:36:28;103273.19;;;2.18;100.00
73651;BME280;61944;52.538;6.108;2023-04-03T06:38:54;103288.72;;;2.24;100.00
73651;BME280;61944;52.538;6.108;2023-04-03T06:41:19;103290.44;;;2.03;100.00
73651;BME280;61944;52.538;6.108;2023-04-03T06:43:44;103297.75;;;1.66;100.00
73651;BME280;61944;52.538;6.108;2023-04-03T06:46:21;103298.78;;;1.81;100.00
73651;BME280;61944;52.538;6.108;2023-04-03T06:48:48;103297.25;;;1.96;100.00
73651;BME280;61944;52.538;6.108;2023-04-03T06:51:25;103305.50;;;1.91;100.00
73651;BME280;61944;52.538;6.108;2023-04-03T06:53:54;103295.69;;;1.78;100.00
73651;BME280;61944;52.538;6.108;2023-04-03T06:56:21;103300.78;;;2.13;100.00
73651;BME280;61944;52.538;6.108;2023-04-03T06:58:47;103304.88;;;1.83;100.00
73651;BME280;61944;52.538;6.108;2023-04-03T07:01:14;103316.25;;;2.14;100.00
73651;BME280;61944;52.538;6.108;2023-04-03T07:03:40;103299.78;;;2.24;100.00
73651;BME280;61944;52.538;6.108;2023-04-03T07:06:07;103327.47;;;2.02;100.00
73651;BME280;61944;52.538;6.108;2023-04-03T07:08:33;103317.00;;;2.69;100.00
73651;BME280;61944;52.538;6.108;2023-04-03T07:10:59;103316.28;;;2.84;100.00
73651;BME280;61944;52.538;6.108;2023-04-03T07:13:24;103316.94;;;2.59;100.00
73651;BME280;61944;52.538;6.108;2023-04-03T07:15:50;103318.56;;;2.92;98.88
73651;BME280;61944;52.538;6.108;2023-04-03T07:18:16;103328.00;;;2.96;98.09
73651;BME280;61944;52.538;6.108;2023-04-03T07:20:42;103326.88;;;2.92;98.94
73651;BME280;61944;52.538;6.108;2023-04-03T07:23:08;103324.44;;;3.01;98.18
73651;BME280;61944;52.538;6.108;2023-04-03T07:25:34;103330.53;;;2.65;99.24
73651;BME280;61944;52.538;6.108;2023-04-03T07:27:59;103337.84;;;2.82;98.83
73651;BME280;61944;52.538;6.108;2023-04-03T07:30:24;103336.19;;;3.18;98.05
73651;BME280;61944;52.538;6.108;2023-04-03T07:32:50;103346.47;;;3.28;96.76
73651;BME280;61944;52.538;6.108;2023-04-03T07:35:16;103343.44;;;3.30;96.26
73651;BME280;61944;52.538;6.108;2023-04-03T07:37:42;103335.25;;;3.02;96.37
73651;BME280;61944;52.538;6.108;2023-04-03T07:40:08;103336.94;;;3.09;95.14
73651;BME280;61944;52.538;6.108;2023-04-03T07:42:34;103338.66;;;3.15;94.95
73651;BME280;61944;52.538;6.108;2023-04-03T07:45:00;103344.13;;;3.10;95.51
73651;BME280;61944;52.538;6.108;2023-04-03T07:47:26;103337.09;;;3.29;95.90
73651;BME280;61944;52.538;6.108;2023-04-03T07:49:51;103344.44;;;3.13;93.96
73651;BME280;61944;52.538;6.108;2023-04-03T07:52:17;103345.66;;;3.28;94.34
73651;BME280;61944;52.538;6.108;2023-04-03T07:54:42;103346.47;;;3.28;93.44
73651;BME280;61944;52.538;6.108;2023-04-03T07:57:08;103344.34;;;3.40;92.46
73651;BME280;61944;52.538;6.108;2023-04-03T07:59:33;103344.88;;;3.37;90.99
73651;BME280;61944;52.538;6.108;2023-04-03T08:01:58;103343.25;;;3.46;90.90
73651;BME280;61944;52.538;6.108;2023-04-03T08:04:24;103339.34;;;3.37;91.13
73651;BME280;61944;52.538;6.108;2023-04-03T08:06:51;103358.81;;;3.58;91.94
73651;BME280;61944;52.538;6.108;2023-04-03T08:09:17;103353.19;;;3.42;88.58
73651;BME280;61944;52.538;6.108;2023-04-03T08:11:43;103353.84;;;3.60;88.05
73651;BME280;61944;52.538;6.108;2023-04-03T08:14:09;103358.31;;;3.66;87.90
73651;BME280;61944;52.538;6.108;2023-04-03T08:16:40;103348.31;;;3.60;85.38
73651;BME280;61944;52.538;6.108;2023-04-03T08:19:05;103364.44;;;3.78;86.19
73651;BME280;61944;52.538;6.108;2023-04-03T08:21:32;103354.75;;;3.81;86.11
73651;BME280;61944;52.538;6.108;2023-04-03T08:23:58;103358.91;;;3.78;81.33
73651;BME280;61944;52.538;6.108;2023-04-03T08:26:23;103366.66;;;3.81;83.05
73651;BME280;61944;52.538;6.108;2023-04-03T08:28:49;103356.75;;;3.91;79.26
73651;BME280;61944;52.538;6.108;2023-04-03T08:31:17;103360.09;;;3.98;79.86
73651;BME280;61944;52.538;6.108;2023-04-03T08:33:43;103366.50;;;4.08;81.36
73651;BME280;61944;52.538;6.108;2023-04-03T08:36:17;103373.97;;;4.13;76.87
73651;BME280;61944;52.538;6.108;2023-04-03T08:38:43;103372.63;;;4.16;76.78
73651;BME280;61944;52.538;6.108;2023-04-03T08:47:01;103376.84;;;4.44;75.01
73651;BME280;61944;52.538;6.108;2023-04-03T08:49:33;103377.69;;;4.50;76.88
73651;BME280;61944;52.538;6.108;2023-04-03T08:52:04;103373.28;;;4.64;76.36
73651;BME280;61944;52.538;6.108;2023-04-03T08:54:34;103369.66;;;4.79;77.97
73651;BME280;61944;52.538;6.108;2023-04-03T08:57:03;103369.09;;;4.92;76.99
73651;BME280;61944;52.538;6.108;2023-04-03T08:59:34;103376.59;;;4.86;74.15
73651;BME280;61944;52.538;6.108;2023-04-03T09:02:03;103369.63;;;4.89;74.49
73651;BME280;61944;52.538;6.108;2023-04-03T09:04:32;103364.66;;;4.76;74.88
73651;BME280;61944;52.538;6.108;2023-04-03T09:07:04;103364.09;;;4.99;72.69
73651;BME280;61944;52.538;6.108;2023-04-03T09:09:40;103361.31;;;5.09;69.48
73651;BME280;61944;52.538;6.108;2023-04-03T09:22:54;103355.34;;;5.62;66.49
73651;BME280;61944;52.538;6.108;2023-04-03T09:25:27;103349.22;;;5.65;65.43
73651;BME280;61944;52.538;6.108;2023-04-03T09:27:56;103345.31;;;5.66;65.58
73651;BME280;61944;52.538;6.108;2023-04-03T09:30:25;103351.19;;;5.60;65.61
73651;BME280;61944;52.538;6.108;2023-04-03T09:32:52;103341.09;;;5.79;64.26
73651;BME280;61944;52.538;6.108;2023-04-03T09:35:22;103341.59;;;5.91;61.25
73651;BME280;61944;52.538;6.108;2023-04-03T09:37:51;103344.03;;;6.14;62.03
73651;BME280;61944;52.538;6.108;2023-04-03T09:40:36;103343.50;;;6.06;60.85
73651;BME280;61944;52.538;6.108;2023-04-03T09:45:41;103337.28;;;6.25;58.32
73651;BME280;61944;52.538;6.108;2023-04-03T09:53:37;103344.72;;;6.35;54.75
73651;BME280;61944;52.538;6.108;2023-04-03T09:58:51;103348.22;;;6.50;55.22
73651;BME280;61944;52.538;6.108;2023-04-03T10:06:34;103331.19;;;6.91;51.53
73651;BME280;61944;52.538;6.108;2023-04-03T10:09:06;103330.06;;;7.17;52.37
73651;BME280;61944;52.538;6.108;2023-04-03T10:14:21;103319.91;;;7.31;51.32
73651;BME280;61944;52.538;6.108;2023-04-03T10:16:56;103325.59;;;7.45;52.60
73651;BME280;61944;52.538;6.108;2023-04-03T10:19:48;103318.06;;;7.45;52.81
73651;BME280;61944;52.538;6.108;2023-04-03T10:22:37;103322.47;;;7.51;49.09
73651;BME280;61944;52.538;6.108;2023-04-03T10:31:13;103314.25;;;7.84;48.76
73651;BME280;61944;52.538;6.108;2023-04-03T10:33:59;103302.19;;;8.08;49.11
73651;BME280;61944;52.538;6.108;2023-04-03T10:37:21;103305.81;;;8.08;49.64
73651;BME280;61944;52.538;6.108;2023-04-03T10:42:45;103301.88;;;8.09;49.88
73651;BME280;61944;52.538;6.108;2023-04-03T10:53:56;103292.75;;;8.74;46.59
73651;BME280;61944;52.538;6.108;2023-04-03T10:59:43;103284.94;;;8.90;45.01
73651;BME280;61944;52.538;6.108;2023-04-03T11:02:37;103284.75;;;9.01;47.19
73651;BME280;61944;52.538;6.108;2023-04-03T11:05:17;103283.72;;;8.97;45.55
73651;BME280;61944;52.538;6.108;2023-04-03T11:07:49;103282.88;;;8.96;44.66
73651;BME280;61944;52.538;6.108;2023-04-03T11:10:29;103275.81;;;8.85;45.18
73651;BME280;61944;52.538;6.108;2023-04-03T11:15:34;103279.09;;;9.20;45.88
73651;BME280;61944;52.538;6.108;2023-04-03T11:18:10;103272.34;;;9.34;45.73
73651;BME280;61944;52.538;6.108;2023-04-03T11:20:42;103270.91;;;9.51;45.18
73651;BME280;61944;52.538;6.108;2023-04-03T11:23:25;103270.47;;;9.57;43.38
73651;BME280;61944;52.538;6.108;2023-04-03T11:25:55;103266.94;;;9.52;44.55
73651;BME280;61944;52.538;6.108;2023-04-03T11:28:24;103264.75;;;9.63;43.94
73651;BME280;61944;52.538;6.108;2023-04-03T11:36:45;103266.56;;;12.61;38.64
73651;BME280;61944;52.538;6.108;2023-04-03T11:39:23;103257.88;;;10.64;40.84
73651;BME280;61944;52.538;6.108;2023-04-03T11:41:49;103256.00;;;9.92;43.75
73651;BME280;61944;52.538;6.108;2023-04-03T11:44:37;103268.50;;;9.94;42.08
73651;BME280;61944;52.538;6.108;2023-04-03T11:47:05;103246.63;;;9.74;41.00
73651;BME280;61944;52.538;6.108;2023-04-03T11:49:56;103245.91;;;10.05;40.72
73651;BME280;61944;52.538;6.108;2023-04-03T12:00:45;103245.09;;;9.90;48.45
73651;BME280;61944;52.538;6.108;2023-04-03T12:05:50;103233.34;;;10.38;40.81
73651;BME280;61944;52.538;6.108;2023-04-03T12:13:33;103230.91;;;10.23;43.63
73651;BME280;61944;52.538;6.108;2023-04-03T12:16:00;103222.53;;;10.46;42.47
73651;BME280;61944;52.538;6.108;2023-04-03T12:18:44;;;;10.57;
73651;BME280;61944;52.538;6.108;2023-04-03T12:46:04;103187.25;;;10.45;43.82
73651;BME280;61944;52.538;6.108;2023-04-03T12:48:32;103184.56;;;10.71;39.54
73651;BME280;61944;52.538;6.108;2023-04-03T12:50:59;103181.84;;;10.80;40.39
73651;BME280;61944;52.538;6.108;2023-04-03T12:53:27;103179.13;;;10.66;40.19
73651;BME280;61944;52.538;6.108;2023-04-03T12:55:56;103175.69;;;10.69;41.17
73651;BME280;61944;52.538;6.108;2023-04-03T12:58:24;103167.78;;;10.71;40.25
73651;BME280;61944;52.538;6.108;2023-04-03T13:01:23;103175.31;;;11.02;45.46
73651;BME280;61944;52.538;6.108;2023-04-03T13:03:53;103162.66;;;11.13;42.79
73651;BME280;61944;52.538;6.108;2023-04-03T13:06:28;103163.81;;;11.12;44.76
73651;BME280;61944;52.538;6.108;2023-04-03T13:08:57;103158.88;;;10.69;42.45
73651;BME280;61944;52.538;6.108;2023-04-03T13:11:24;103166.28;;;11.13;39.29
73651;BME280;61944;52.538;6.108;2023-04-03T13:13:55;103160.31;;;11.06;40.50
73651;BME280;61944;52.538;6.108;2023-04-03T13:16:21;103163.03;;;11.64;39.87
73651;BME280;61944;52.538;6.108;2023-04-03T13:18:52;103155.94;;;11.40;38.97
73651;BME280;61944;52.538;6.108;2023-04-03T13:21:21;103152.94;;;11.28;40.51
73651;BME280;61944;52.538;6.108;2023-04-03T13:23:50;103152.16;;;10.78;43.45
73651;BME280;61944;52.538;6.108;2023-04-03T13:26:18;103158.22;;;11.12;41.08
73651;BME280;61944;52.538;6.108;2023-04-03T13:28:46;103158.25;;;10.81;41.45
73651;BME280;61944;52.538;6.108;2023-04-03T13:33:45;103164.84;;;11.42;42.30
73651;BME280;61944;52.538;6.108;2023-04-03T13:36:21;103162.53;;;11.27;45.10
73651;BME280;61944;52.538;6.108;2023-04-03T13:38:58;103156.78;;;11.41;44.18
73651;BME280;61944;52.538;6.108;2023-04-03T13:41:34;103146.53;;;11.45;43.49
73651;BME280;61944;52.538;6.108;2023-04-03T13:46:55;103164.69;;;11.47;41.88
73651;BME280;61944;52.538;6.108;2023-04-03T13:49:37;103157.94;;;11.48;41.51
73651;BME280;61944;52.538;6.108;2023-04-03T13:52:27;103152.97;;;11.36;40.76
73651;BME280;61944;52.538;6.108;2023-04-03T13:54:59;103148.69;;;11.39;40.71
73651;BME280;61944;52.538;6.108;2023-04-03T13:57:27;103143.00;;;11.04;43.41
73651;BME280;61944;52.538;6.108;2023-04-03T13:59:53;103144.50;;;11.02;44.40
73651;BME280;61944;52.538;6.108;2023-04-03T14:02:28;103142.34;;;10.98;42.30
73651;BME280;61944;52.538;6.108;2023-04-03T14:04:57;103151.28;;;11.09;45.48
73651;BME280;61944;52.538;6.108;2023-04-03T14:07:25;103129.00;;;11.13;43.80
73651;BME280;61944;52.538;6.108;2023-04-03T14:09:52;103130.31;;;11.07;42.20
73651;BME280;61944;52.538;6.108;2023-04-03T14:12:19;103124.91;;;11.28;44.76
73651;BME280;61944;52.538;6.108;2023-04-03T14:14:46;103122.59;;;11.12;41.00
73651;BME280;61944;52.538;6.108;2023-04-03T14:17:18;103121.25;;;11.01;41.55
73651;BME280;61944;52.538;6.108;2023-04-03T14:19:44;103121.56;;;10.91;42.58
73651;BME280;61944;52.538;6.108;2023-04-03T14:22:15;103121.38;;;10.87;42.05
73651;BME280;61944;52.538;6.108;2023-04-03T14:24:41;103121.75;;;11.12;42.45
73651;BME280;61944;52.538;6.108;2023-04-03T14:27:21;103121.09;;;11.06;41.88
73651;BME280;61944;52.538;6.108;2023-04-03T14:29:48;103111.03;;;11.05;44.24
73651;BME280;61944;52.538;6.108;2023-04-03T14:32:15;103108.78;;;11.59;42.21
73651;BME280;61944;52.538;6.108;2023-04-03T14:34:42;103103.16;;;11.42;42.16
73651;BME280;61944;52.538;6.108;2023-04-03T14:37:19;103107.94;;;11.50;44.32
73651;BME280;61944;52.538;6.108;2023-04-03T14:39:46;103109.44;;;11.30;42.48
73651;BME280;61944;52.538;6.108;2023-04-03T14:42:15;103106.75;;;10.99;43.14
73651;BME280;61944;52.538;6.108;2023-04-03T14:44:41;103101.50;;;11.24;45.94
73651;BME280;61944;52.538;6.108;2023-04-03T14:47:14;103108.44;;;11.17;44.84
73651;BME280;61944;52.538;6.108;2023-04-03T14:49:42;103100.34;;;11.07;43.59
73651;BME280;61944;52.538;6.108;2023-04-03T14:52:17;103107.38;;;10.96;43.42
73651;BME280;61944;52.538;6.108;2023-04-03T14:54:43;103103.25;;;10.93;43.62
73651;BME280;61944;52.538;6.108;2023-04-03T14:57:09;103110.38;;;11.26;42.63
73651;BME280;61944;52.538;6.108;2023-04-03T14:59:37;103103.25;;;10.85;41.78
73651;BME280;61944;52.538;6.108;2023-04-03T15:02:11;103104.78;;;11.26;45.23